Aviation Digital Data Service (ADDS)

Output produced by METARs form (2256 UTC 23 October 2019)
found at http://www.aviationweather.gov/metar/data/
 
LECO 232230Z 23007KT 9999 SCT030 BKN047 12/10 Q1014 NOSIG
TAF LECO 232000Z 2321/2421 23008KT 9999 BKN020 TX18/2414Z TN10/2405Z 
     PROB40 
     TEMPO 2406/2410 22015G25KT 
     TEMPO 2400/2415 RA 
     TEMPO 2406/2410 3000 RA BKN010 
     PROB40 
     TEMPO 2415/2418 22015G25KT
       
LEAB 232200Z 28006KT 9999 SCT021 BKN026 09/07 Q1012 NOSIG
TAF LEAB 232000Z 2321/2406 28010KT 9999 BKN030 
     TEMPO 2321/2323 VRB05KT 
     PROB30 
     TEMPO 2321/2403 3000 RADZ BKN010 
     PROB30 
     TEMPO 2403/2406 4000 BR BKN012
       
LERI 231800Z 18003KT 150V220 9999 FEW060 15/10 Q1011 NOSIG
TAF LERI 231400Z 2315/2324 24008KT 9999 SCT050 
     PROB30 
     TEMPO 2318/2321 SHRA FEW030TCU
       
LEAL 232230Z 28007KT 9999 FEW040 13/08 Q1012 NOSIG
TAF LEAL 231700Z 2318/2418 30010KT 9999 FEW040 TX22/2412Z TN11/2406Z 
     BECMG 2405/2407 23008KT 
     BECMG 2407/2409 32015KT 
     BECMG 2414/2416 32005KT
       
LEAM 232230Z AUTO 25005KT 220V290 CAVOK 15/11 Q1012
TAF LEAM 232000Z 2321/2421 33008KT 9999 FEW030 TX20/2413Z TN12/2404Z 
     BECMG 2408/2410 19010KT 
     BECMG 2418/2420 33006KT
       
LEGA 231700Z 28005KT 9999 -RA SCT027 BKN040 OVC070 10/08 Q1013
TAF LEGA 231400Z 2315/2324 27007KT 9999 SCT030 
     PROB40 
     TEMPO 2315/2318 4000 RA SCT030TCU
       
LEAS 232230Z AUTO 27009KT 9999 BKN032 BKN055 BKN060 13/09 Q1012
TAF LEAS 232000Z 2321/2421 23008KT 9999 SCT030 SCT060 TX18/2414Z TN10/2405Z 
     TEMPO 2321/2324 29015KT 
     TEMPO 2403/2410 RA 
     PROB40 
     TEMPO 2408/2413 24015G25KT
       
LEMD 232230Z 16005KT 7000 SCT050 09/08 Q1012 NOSIG
TAF LEMD 231700Z 2318/2424 VRB05KT 9999 BKN040 TX18/2415Z TN07/2406Z 
     PROB40 
     TEMPO 2318/2403 3000 RADZ BR BKN010 
     PROB40 
     TEMPO 2403/2409 4000 BR BKN014 
     PROB30 
     TEMPO 2404/2408 0300 FG BKN003
       
LEBL 232230Z 24011KT 9999 FEW045 17/10 Q1010 NOSIG
TAF LEBL 231700Z 2318/2418 21012KT 9999 SCT030 TX23/2412Z TN13/2406Z 
     TEMPO 2318/2406 FEW030TCU 
     TEMPO 2318/2322 20015G25KT 
     BECMG 2323/2401 34008KT 
     TEMPO 2404/2409 34010G20KT 
     BECMG 2409/2411 33012KT
       
LEBB 232230Z AUTO 26010KT 220V320 9999 -RA SCT033 BKN040 13/10 Q1010
TAF LEBB 231700Z 2318/2418 25009KT 9999 SCT015 BKN025 TX19/2415Z TN10/2404Z 
     TEMPO 2318/2403 3000 RA BKN014 
     TEMPO 2318/2324 1500 +RA BKN005 BKN010 
     PROB40 
     TEMPO 2318/2321 3000 SHRA TS SCT025TCU SCT030CB 
     TEMPO 2318/2324 25015G25KT 
     PROB40 
     TEMPO 2318/2321 25025G35KT 
     BECMG 2400/2404 19010KT 
     PROB40 
     TEMPO 2406/2412 RA
       
LEBG 232230Z AUTO 33003KT 290V360 9999 -RA SCT033 BKN042 BKN050 07/06 Q1011 RERA
TAF LEBG 231700Z 2318/2403 VRB05KT 9999 BKN025 
     TEMPO 2318/2403 3000 RADZ BKN010
       
LEBA 232230Z AUTO 24005KT 210V280 9999 FEW041 13/11 Q1016
TAF LEBA 231700Z 2318/2403 24008KT 9999 SCT040
       
LEVS 232000Z 24005KT 9999 BKN035 10/08 Q1011
TAF LEVS 231700Z 2318/2403 VRB05KT 9999 BKN040 
     PROB40 
     TEMPO 2318/2403 3000 RADZ BR BKN010
       
GCFV 232230Z AUTO 05016KT 9999 FEW040 21/14 Q1018
TAF GCFV 232000Z 2321/2421 06010KT 9999 FEW035 TX26/2414Z TN18/2405Z 
     PROB30 
     TEMPO 2321/2401 36008KT
       
LEGT 231900Z 23005KT 200V260 9999 FEW007 SCT008 BKN010 10/09 Q1010
TAF LEGT 231700Z 2318/2403 VRB05KT 9999 BKN030 
     PROB40 
     TEMPO 2318/2403 3000 RADZ BR BKN010
       
LEGE 232230Z 00000KT 9999 FEW060 11/10 Q1010
TAF LEGE 231700Z 2318/2418 VRB04KT 9999 FEW020 TX22/2413Z TN10/2406Z 
     PROB40 
     TEMPO 2323/2406 4000 BR BKN005 
     BECMG 2402/2404 32005KT 
     BECMG 2410/2412 03008KT
       
GCLP 232230Z 02007KT 330V050 9999 FEW040 20/12 Q1019 NOSIG
TAF GCLP 232000Z 2321/2421 36009KT 9999 SCT040 TX24/2414Z TN18/2405Z 
     BECMG 2409/2411 09010KT
       
LEGR 232230Z AUTO VRB01KT 9999 FEW026 BKN034 OVC045 10/09 Q1016
TAF LEGR 232000Z 2321/2421 25005KT 9999 SCT020 TX20/2415Z TN06/2407Z 
     TEMPO 2403/2410 BKN008
       
GCHI 232230Z AUTO 36012KT 330V050 8000 NSC 22/16 Q1018
TAF GCHI 232000Z 2321/2421 08009KT 9999 BKN045 TX25/2414Z TN20/2405Z
       
LEIB 232230Z 31003KT 9999 FEW018 13/11 Q1011 NOSIG
TAF LEIB 232000Z 2321/2421 30008KT 9999 FEW025 TX20/2412Z TN14/2406Z 
     BECMG 2403/2405 30006KT 
     BECMG 2410/2412 36010KT 
     BECMG 2415/2417 36005KT
       
LEJR 232230Z AUTO 28006KT 240V320 9999 NCD 15/10 Q1017
TAF LEJR 231700Z 2318/2418 28007KT 9999 BKN040 TX21/2412Z TN09/2406Z
       
GCGM 232230Z AUTO VRB01KT 9999 FEW050 19/14 Q1019 RMK R09/00000KT ARP/00000KT
TAF GCGM 232000Z 2321/2421 36008KT 9999 SCT040 TX25/2414Z TN18/2405Z
       
GCLA 232230Z AUTO 34004KT 300V020 9999 BKN038 BKN056 20/14 Q1019
TAF GCLA 232000Z 2321/2421 33009KT 9999 BKN045 TX25/2414Z TN19/2405Z
       
GCRR 232230Z 03008KT 9999 FEW040 20/13 Q1018
TAF GCRR 232000Z 2321/2421 36009KT 9999 FEW040 TX26/2414Z TN17/2405Z 
     BECMG 2408/2409 11010KT
       
LELN 232230Z 25004KT 220V320 9999 FEW035 06/06 Q1012
TAF AMD LELN 232126Z 2321/2403 VRB05KT 9999 FEW025 BKN055 
     TEMPO 2321/2403 3000 RADZ BR BKN010
       
LEMG 232230Z 31008KT 9999 FEW040 SCT070 17/07 Q1016 NOSIG
TAF LEMG 231700Z 2318/2418 27009KT 9999 FEW020 TX23/2413Z TN12/2406Z
       
GEML 232230Z AUTO 22004KT 190V290 9999 NCD 17/10 Q1017
TAF GEML 232000Z 2321/2421 26012KT CAVOK TX21/2414Z TN14/2405Z 
     TEMPO 2408/2418 27018G30KT
       
LEMH 232230Z 25010KT 200V280 9999 FEW025 17/12 Q1012
TAF LEMH 232000Z 2321/2421 22010KT 9999 FEW025 TX20/2412Z TN14/2406Z 
     BECMG 2405/2407 VRB04KT 
     PROB40 
     TEMPO 2403/2410 VRB15G25KT 3000 TSRA FEW020CB 
     BECMG 2410/2413 36008KT
       
LEMO 232200Z 22006KT 9999 SCT059 14/10 Q1016 NOSIG
TAF LEMO 232000Z 2321/2406 25006KT 9999 SCT040
       
LEPP 232230Z AUTO VRB02KT 9999 OVC031 11/09 Q1009
TAF LEPP 232000Z 2321/2421 VRB05KT 9999 BKN040 TX17/2415Z TN09/2406Z 
     TEMPO 2400/2408 29010KT 3000 RA
       
LERS 232230Z AUTO 02006KT 9999 FEW041 SCT050 12/12 Q1010
TAF LERS 232000Z 2321/2421 VRB04KT 9999 FEW030 TX21/2412Z TN10/2406Z 
     BECMG 2412/2414 30010KT 
     BECMG 2417/2419 VRB04KT
       
LERT 232200Z 30011KT 270V330 9999 FEW040 17/10 Q1017 NOSIG
TAF LERT 232000Z 2321/2406 27015KT 9999 SCT040 
     TEMPO 2321/2324 27016G28KT 
     BECMG 2400/2402 33008KT
       
LESA 232230Z AUTO 29006KT 260V320 9000 SCT032 07/06 Q1014
TAF LESA 231700Z 2318/2418 31010KT 9999 SCT015 BKN020 TX14/2415Z TN05/2406Z 
     BECMG 2404/2406 VRB05KT 
     PROB40 
     TEMPO 2318/2403 3000 RA BR 
     PROB30 
     TEMPO 2322/2409 0200 FG OVC002
       
LESO 232230Z AUTO 23007KT 190V260 7000 RA FEW039 SCT048 BKN058 13/12 Q1009
TAF LESO 231700Z 2318/2418 24009KT 9999 SCT025 TX20/2415Z TN10/2405Z 
     TEMPO 2318/2406 3000 RA BKN014 
     PROB40 
     TEMPO 2324/2403 1500 +RA BKN005 BKN010 
     PROB40 
     TEMPO 2318/2403 3000 SHRA TS SCT025TCU SCT030CB 
     TEMPO 2318/2409 23015G30KT
       
LEXJ 232230Z AUTO 23010KT 6000 -RA SCT033 BKN041 BKN050 11/10 Q1010
TAF LEXJ 232000Z 2321/2421 26012KT 4000 RA SCT015 BKN025 TX18/2415Z TN11/2403Z 
     TEMPO 2321/2402 26017G27KT 
     BECMG 2323/2403 20008KT 9999 NSW 
     PROB40 
     TEMPO 2406/2410 RA 
     TEMPO 2408/2412 20015G25KT 
     TEMPO 2413/2417 27012KT
       
LEST 232230Z 22002KT 9999 SCT024 09/09 Q1015 NOSIG
TAF LEST 231700Z 2318/2418 32008KT 9999 BKN020 TX15/2415Z TN09/2400Z 
     BECMG 2321/2401 21010KT BKN010 BKN014 
     TEMPO 2400/2415 3000 RA BKN004 
     PROB40 
     TEMPO 2406/2412 1500 RA BCFG BKN002
       
LEZL 232230Z 26008KT CAVOK 16/09 Q1016 NOSIG
TAF LEZL 232000Z 2321/2421 24005KT 9999 FEW040 TX22/2414Z TN09/2406Z
       
LESB 232230Z AUTO 35004KT 9999 SCT040/// SCT047/// 13/11 Q1012
LEBZ 231900Z VRB01KT 9999 SCT040 14/10 Q1013
TAF COR LEBZ 231736Z 2318/2418 27006KT CAVOK TX21/2415Z TN08/2406Z 
     PROB40 
     TEMPO 2403/2408 3000 BR 
     PROB30 
     TEMPO 2405/2408 0500 FG VV001
       
GCXO 232230Z AUTO VRB02KT 9999 BKN028 15/12 Q1021
TAF GCXO 232000Z 2321/2421 06005KT 9999 SCT025 TX21/2414Z TN14/2405Z 
     PROB30 
     TEMPO 2321/2404 13010KT 
     PROB40 
     TEMPO 2405/2409 BKN012
       
GCTS 232230Z 04008KT 9999 FEW034 20/12 Q1019 NOSIG
TAF GCTS 232000Z 2321/2421 05008KT 9999 SCT040 TX25/2414Z TN18/2405Z 
     BECMG 2410/2412 09018KT
       
LETO 232200Z 19005KT 9999 BKN055 09/09 Q1012 NOSIG
TAF LETO 231700Z 2318/2418 VRB05KT 9999 BKN045 TX18/2415Z TN07/2406Z 
     PROB40 
     TEMPO 2318/2403 3000 RADZ BR BKN010 
     PROB40 
     TEMPO 2403/2409 4000 BR BKN014 
     PROB30 
     TEMPO 2404/2408 0300 FG BKN003
       
LEVC 232230Z 28003KT 250V340 9999 FEW030 11/08 Q1011 NOSIG
TAF LEVC 231700Z 2318/2418 27005KT 9999 FEW040 TX23/2412Z TN11/2406Z 
     BECMG 2404/2406 30007KT 
     TEMPO 2414/2418 36007KT
       
LEVD 231930Z 31014KT 9999 OVC048 08/06 Q1010
TAF LEVD 231700Z 2318/2418 34010KT 9999 SCT014 BKN040 TX14/2414Z TN05/2406Z 
     TEMPO 2318/2404 3000 RA BR BKN014 
     BECMG 2402/2404 24008KT 
     TEMPO 2403/2410 3000 BR BKN008 
     PROB40 
     TEMPO 2404/2409 0100 FG BKN001
       
LEVX 232230Z 28003KT 9999 SCT025 11/10 Q1015 NOSIG
TAF LEVX 231700Z 2318/2418 29009KT 9999 BKN020 TX17/2414Z TN09/2400Z 
     BECMG 2321/2401 19010KT BKN010 BKN014 
     TEMPO 2403/2412 3000 RA BKN004 
     PROB40 
     TEMPO 2406/2412 1500 RA BCFG BKN002
       
LEVT 232230Z 22005KT 9000 -RA FEW015 BKN036 09/08 Q1010
TAF LEVT 231700Z 2318/2418 27009KT 9999 SCT010 BKN020 TX16/2415Z TN07/2406Z 
     TEMPO 2318/2407 3000 RA BKN010 BKN014 
     PROB40 
     TEMPO 2318/2403 1500 +RA BKN005 BKN010 
     PROB40 
     TEMPO 2318/2321 3000 SHRA TS SCT025TCU SCT030CB 
     TEMPO 2318/2324 27015G25KT 
     BECMG 2400/2404 20010KT
       
LEZG 232230Z 23012KT 9999 FEW040 13/08 Q1009
TAF AMD LEZG 231903Z 2319/2418 23010KT 9999 FEW040 TX19/2412Z TN09/2407Z 
     TEMPO 2319/2322 VRB03KT 
     PROB30 
     TEMPO 2401/2405 4000 BR BKN010 
     BECMG 2410/2412 30007KT